sensor_id;sensor_type;location;lat;lon;timestamp;P1;durP1;ratioP1;P2;durP2;ratioP2
13805;SDS011;6974;53.606;9.872;2023-02-15T00:01:07;47.17;;;31.53;;
13805;SDS011;6974;53.606;9.872;2023-02-15T00:03:34;52.37;;;32.87;;
13805;SDS011;6974;53.606;9.872;2023-02-15T00:06:01;41.87;;;29.53;;
13805;SDS011;6974;53.606;9.872;2023-02-15T00:08:28;40.63;;;30.47;;
13805;SDS011;6974;53.606;9.872;2023-02-15T00:11:02;40.47;;;29.87;;
13805;SDS011;6974;53.606;9.872;2023-02-15T00:13:32;39.87;;;28.77;;
13805;SDS011;6974;53.606;9.872;2023-02-15T00:16:04;40.53;;;29.27;;
13805;SDS011;6974;53.606;9.872;2023-02-15T00:18:32;42.83;;;29.83;;
13805;SDS011;6974;53.606;9.872;2023-02-15T00:21:03;42.60;;;29.43;;
13805;SDS011;6974;53.606;9.872;2023-02-15T00:23:30;43.30;;;29.13;;
13805;SDS011;6974;53.606;9.872;2023-02-15T00:26:04;41.47;;;30.90;;
13805;SDS011;6974;53.606;9.872;2023-02-15T00:28:33;40.27;;;28.80;;
13805;SDS011;6974;53.606;9.872;2023-02-15T00:31:04;36.27;;;28.03;;
13805;SDS011;6974;53.606;9.872;2023-02-15T00:33:32;41.10;;;29.40;;
13805;SDS011;6974;53.606;9.872;2023-02-15T00:35:59;41.37;;;29.87;;
13805;SDS011;6974;53.606;9.872;2023-02-15T00:38:28;44.83;;;29.17;;
13805;SDS011;6974;53.606;9.872;2023-02-15T00:40:57;44.90;;;31.60;;
13805;SDS011;6974;53.606;9.872;2023-02-15T00:43:25;41.83;;;29.60;;
13805;SDS011;6974;53.606;9.872;2023-02-15T00:45:53;42.10;;;30.13;;
13805;SDS011;6974;53.606;9.872;2023-02-15T00:48:21;40.37;;;29.97;;
13805;SDS011;6974;53.606;9.872;2023-02-15T00:50:49;43.83;;;29.90;;
13805;SDS011;6974;53.606;9.872;2023-02-15T00:53:17;39.80;;;29.50;;
13805;SDS011;6974;53.606;9.872;2023-02-15T00:55:44;42.00;;;29.33;;
13805;SDS011;6974;53.606;9.872;2023-02-15T00:58:11;42.23;;;28.97;;
13805;SDS011;6974;53.606;9.872;2023-02-15T01:00:38;43.47;;;29.77;;
13805;SDS011;6974;53.606;9.872;2023-02-15T01:03:08;42.57;;;30.37;;
13805;SDS011;6974;53.606;9.872;2023-02-15T01:05:35;43.60;;;31.60;;
13805;SDS011;6974;53.606;9.872;2023-02-15T01:08:02;40.47;;;30.00;;
13805;SDS011;6974;53.606;9.872;2023-02-15T01:10:29;44.00;;;29.90;;
13805;SDS011;6974;53.606;9.872;2023-02-15T01:12:56;51.43;;;31.80;;
13805;SDS011;6974;53.606;9.872;2023-02-15T01:15:23;53.20;;;30.77;;
13805;SDS011;6974;53.606;9.872;2023-02-15T01:17:51;49.07;;;31.80;;
13805;SDS011;6974;53.606;9.872;2023-02-15T01:20:20;45.83;;;31.33;;
13805;SDS011;6974;53.606;9.872;2023-02-15T01:22:48;47.53;;;30.90;;
13805;SDS011;6974;53.606;9.872;2023-02-15T01:25:15;44.17;;;30.77;;
13805;SDS011;6974;53.606;9.872;2023-02-15T01:27:42;43.20;;;30.83;;
13805;SDS011;6974;53.606;9.872;2023-02-15T01:30:09;46.23;;;31.17;;
13805;SDS011;6974;53.606;9.872;2023-02-15T01:32:37;48.13;;;30.07;;
13805;SDS011;6974;53.606;9.872;2023-02-15T01:35:04;44.50;;;31.83;;
13805;SDS011;6974;53.606;9.872;2023-02-15T01:37:33;44.80;;;30.93;;
13805;SDS011;6974;53.606;9.872;2023-02-15T01:40:00;46.47;;;31.27;;
13805;SDS011;6974;53.606;9.872;2023-02-15T01:42:28;46.80;;;31.93;;
13805;SDS011;6974;53.606;9.872;2023-02-15T01:44:56;44.40;;;30.97;;
13805;SDS011;6974;53.606;9.872;2023-02-15T01:47:26;58.57;;;31.30;;
13805;SDS011;6974;53.606;9.872;2023-02-15T01:50:02;42.77;;;31.20;;
13805;SDS011;6974;53.606;9.872;2023-02-15T01:52:36;47.13;;;30.67;;
13805;SDS011;6974;53.606;9.872;2023-02-15T01:55:06;45.60;;;32.60;;
13805;SDS011;6974;53.606;9.872;2023-02-15T01:57:35;45.73;;;29.97;;
13805;SDS011;6974;53.606;9.872;2023-02-15T02:00:03;43.33;;;32.03;;
13805;SDS011;6974;53.606;9.872;2023-02-15T02:02:32;46.07;;;30.70;;
13805;SDS011;6974;53.606;9.872;2023-02-15T02:04:59;43.10;;;30.70;;
13805;SDS011;6974;53.606;9.872;2023-02-15T02:07:32;46.07;;;30.83;;
13805;SDS011;6974;53.606;9.872;2023-02-15T02:10:04;42.83;;;30.17;;
13805;SDS011;6974;53.606;9.872;2023-02-15T02:12:35;40.30;;;29.80;;
13805;SDS011;6974;53.606;9.872;2023-02-15T02:15:04;43.87;;;30.33;;
13805;SDS011;6974;53.606;9.872;2023-02-15T02:17:37;47.77;;;30.40;;
13805;SDS011;6974;53.606;9.872;2023-02-15T02:20:17;45.47;;;31.03;;
13805;SDS011;6974;53.606;9.872;2023-02-15T02:23:18;45.73;;;31.70;;
13805;SDS011;6974;53.606;9.872;2023-02-15T02:29:09;56.23;;;32.37;;
13805;SDS011;6974;53.606;9.872;2023-02-15T02:32:01;50.17;;;31.10;;
13805;SDS011;6974;53.606;9.872;2023-02-15T02:34:58;62.17;;;31.90;;
13805;SDS011;6974;53.606;9.872;2023-02-15T02:37:34;51.50;;;31.73;;
13805;SDS011;6974;53.606;9.872;2023-02-15T02:40:11;49.20;;;32.87;;
13805;SDS011;6974;53.606;9.872;2023-02-15T02:42:46;53.20;;;32.93;;
13805;SDS011;6974;53.606;9.872;2023-02-15T02:45:19;52.63;;;31.83;;
13805;SDS011;6974;53.606;9.872;2023-02-15T02:47:52;49.33;;;33.23;;
13805;SDS011;6974;53.606;9.872;2023-02-15T02:50:24;54.03;;;34.33;;
13805;SDS011;6974;53.606;9.872;2023-02-15T02:52:53;48.37;;;31.67;;
13805;SDS011;6974;53.606;9.872;2023-02-15T02:55:22;54.40;;;32.07;;
13805;SDS011;6974;53.606;9.872;2023-02-15T02:57:55;45.37;;;31.30;;
13805;SDS011;6974;53.606;9.872;2023-02-15T03:00:27;49.43;;;31.73;;
13805;SDS011;6974;53.606;9.872;2023-02-15T03:02:58;49.57;;;31.60;;
13805;SDS011;6974;53.606;9.872;2023-02-15T03:05:31;48.90;;;32.00;;
13805;SDS011;6974;53.606;9.872;2023-02-15T03:08:01;61.13;;;31.73;;
13805;SDS011;6974;53.606;9.872;2023-02-15T03:10:31;44.97;;;29.27;;
13805;SDS011;6974;53.606;9.872;2023-02-15T03:13:00;45.93;;;30.97;;
13805;SDS011;6974;53.606;9.872;2023-02-15T03:15:28;45.27;;;31.13;;
13805;SDS011;6974;53.606;9.872;2023-02-15T03:18:13;52.17;;;31.10;;
13805;SDS011;6974;53.606;9.872;2023-02-15T03:20:44;45.17;;;30.97;;
13805;SDS011;6974;53.606;9.872;2023-02-15T03:23:12;44.03;;;30.97;;
13805;SDS011;6974;53.606;9.872;2023-02-15T03:25:42;48.03;;;31.13;;
13805;SDS011;6974;53.606;9.872;2023-02-15T03:28:13;44.90;;;31.80;;
13805;SDS011;6974;53.606;9.872;2023-02-15T03:30:44;44.90;;;30.90;;
13805;SDS011;6974;53.606;9.872;2023-02-15T03:33:15;43.33;;;30.10;;
13805;SDS011;6974;53.606;9.872;2023-02-15T03:35:45;61.57;;;30.23;;
13805;SDS011;6974;53.606;9.872;2023-02-15T03:38:20;76.00;;;31.70;;
13805;SDS011;6974;53.606;9.872;2023-02-15T03:40:51;54.47;;;31.10;;
13805;SDS011;6974;53.606;9.872;2023-02-15T03:43:39;45.43;;;32.43;;
13805;SDS011;6974;53.606;9.872;2023-02-15T03:46:13;61.20;;;32.67;;
13805;SDS011;6974;53.606;9.872;2023-02-15T03:48:46;46.23;;;31.10;;
13805;SDS011;6974;53.606;9.872;2023-02-15T03:51:18;49.30;;;31.03;;
13805;SDS011;6974;53.606;9.872;2023-02-15T03:53:59;47.70;;;30.53;;
13805;SDS011;6974;53.606;9.872;2023-02-15T03:56:28;43.63;;;31.10;;
13805;SDS011;6974;53.606;9.872;2023-02-15T03:58:55;54.00;;;31.30;;
13805;SDS011;6974;53.606;9.872;2023-02-15T04:01:45;45.97;;;30.90;;
13805;SDS011;6974;53.606;9.872;2023-02-15T04:04:25;48.20;;;32.07;;
13805;SDS011;6974;53.606;9.872;2023-02-15T04:06:57;74.43;;;32.93;;
13805;SDS011;6974;53.606;9.872;2023-02-15T04:09:24;46.53;;;32.20;;
13805;SDS011;6974;53.606;9.872;2023-02-15T04:12:08;49.73;;;31.20;;
13805;SDS011;6974;53.606;9.872;2023-02-15T04:14:35;49.00;;;31.63;;
13805;SDS011;6974;53.606;9.872;2023-02-15T04:17:20;47.10;;;31.47;;
13805;SDS011;6974;53.606;9.872;2023-02-15T04:19:47;46.30;;;31.40;;
13805;SDS011;6974;53.606;9.872;2023-02-15T04:22:32;48.47;;;30.83;;
13805;SDS011;6974;53.606;9.872;2023-02-15T04:25:17;46.37;;;30.20;;
13805;SDS011;6974;53.606;9.872;2023-02-15T04:27:44;57.13;;;30.60;;
13805;SDS011;6974;53.606;9.872;2023-02-15T04:30:14;42.63;;;29.93;;
13805;SDS011;6974;53.606;9.872;2023-02-15T04:32:43;50.03;;;30.33;;
13805;SDS011;6974;53.606;9.872;2023-02-15T04:35:10;44.30;;;29.20;;
13805;SDS011;6974;53.606;9.872;2023-02-15T04:37:39;43.00;;;29.77;;
13805;SDS011;6974;53.606;9.872;2023-02-15T04:40:06;43.47;;;30.07;;
13805;SDS011;6974;53.606;9.872;2023-02-15T04:42:36;49.90;;;30.83;;
13805;SDS011;6974;53.606;9.872;2023-02-15T04:45:03;47.23;;;30.87;;
13805;SDS011;6974;53.606;9.872;2023-02-15T04:47:30;48.83;;;32.20;;
13805;SDS011;6974;53.606;9.872;2023-02-15T04:49:57;47.80;;;29.50;;
13805;SDS011;6974;53.606;9.872;2023-02-15T04:52:24;48.73;;;29.20;;
13805;SDS011;6974;53.606;9.872;2023-02-15T04:54:52;43.03;;;29.13;;
13805;SDS011;6974;53.606;9.872;2023-02-15T04:57:18;51.73;;;30.40;;
13805;SDS011;6974;53.606;9.872;2023-02-15T04:59:45;41.33;;;28.10;;
13805;SDS011;6974;53.606;9.872;2023-02-15T05:02:12;48.07;;;30.37;;
13805;SDS011;6974;53.606;9.872;2023-02-15T05:04:39;48.17;;;31.13;;
13805;SDS011;6974;53.606;9.872;2023-02-15T05:07:06;51.83;;;30.00;;
13805;SDS011;6974;53.606;9.872;2023-02-15T05:09:33;57.80;;;30.63;;
13805;SDS011;6974;53.606;9.872;2023-02-15T05:12:01;51.10;;;30.63;;
13805;SDS011;6974;53.606;9.872;2023-02-15T05:14:28;47.63;;;30.97;;
13805;SDS011;6974;53.606;9.872;2023-02-15T05:16:54;47.50;;;30.93;;
13805;SDS011;6974;53.606;9.872;2023-02-15T05:19:23;39.20;;;28.07;;
13805;SDS011;6974;53.606;9.872;2023-02-15T05:21:50;43.30;;;29.33;;
13805;SDS011;6974;53.606;9.872;2023-02-15T05:24:17;41.03;;;28.87;;
13805;SDS011;6974;53.606;9.872;2023-02-15T05:27:03;43.60;;;28.57;;
13805;SDS011;6974;53.606;9.872;2023-02-15T05:29:47;45.97;;;28.73;;
13805;SDS011;6974;53.606;9.872;2023-02-15T05:32:14;44.67;;;28.07;;
13805;SDS011;6974;53.606;9.872;2023-02-15T05:34:41;43.33;;;28.03;;
13805;SDS011;6974;53.606;9.872;2023-02-15T05:37:08;43.33;;;27.60;;
13805;SDS011;6974;53.606;9.872;2023-02-15T05:39:35;40.53;;;27.83;;
13805;SDS011;6974;53.606;9.872;2023-02-15T05:42:03;39.03;;;27.83;;
13805;SDS011;6974;53.606;9.872;2023-02-15T05:44:30;45.37;;;28.30;;
13805;SDS011;6974;53.606;9.872;2023-02-15T05:46:57;39.93;;;28.10;;
13805;SDS011;6974;53.606;9.872;2023-02-15T05:49:24;41.53;;;28.10;;
13805;SDS011;6974;53.606;9.872;2023-02-15T05:51:51;39.47;;;28.53;;
13805;SDS011;6974;53.606;9.872;2023-02-15T05:54:18;42.37;;;27.73;;
13805;SDS011;6974;53.606;9.872;2023-02-15T05:56:44;42.87;;;27.67;;
13805;SDS011;6974;53.606;9.872;2023-02-15T05:59:13;41.07;;;28.07;;
13805;SDS011;6974;53.606;9.872;2023-02-15T06:01:39;43.07;;;27.80;;
13805;SDS011;6974;53.606;9.872;2023-02-15T06:04:06;48.33;;;27.33;;
13805;SDS011;6974;53.606;9.872;2023-02-15T06:06:33;40.67;;;28.40;;
13805;SDS011;6974;53.606;9.872;2023-02-15T06:09:00;39.13;;;26.63;;
13805;SDS011;6974;53.606;9.872;2023-02-15T06:11:27;48.17;;;30.73;;
13805;SDS011;6974;53.606;9.872;2023-02-15T06:13:54;43.97;;;28.27;;
13805;SDS011;6974;53.606;9.872;2023-02-15T06:16:22;43.87;;;29.53;;
13805;SDS011;6974;53.606;9.872;2023-02-15T06:18:49;47.67;;;30.67;;
13805;SDS011;6974;53.606;9.872;2023-02-15T06:21:16;43.87;;;29.90;;
13805;SDS011;6974;53.606;9.872;2023-02-15T06:23:43;53.83;;;30.00;;
13805;SDS011;6974;53.606;9.872;2023-02-15T06:26:09;42.37;;;29.63;;
13805;SDS011;6974;53.606;9.872;2023-02-15T06:28:36;47.80;;;29.60;;
13805;SDS011;6974;53.606;9.872;2023-02-15T06:31:03;42.40;;;29.23;;
13805;SDS011;6974;53.606;9.872;2023-02-15T06:33:31;43.33;;;28.27;;
13805;SDS011;6974;53.606;9.872;2023-02-15T06:35:59;43.37;;;28.20;;
13805;SDS011;6974;53.606;9.872;2023-02-15T06:38:26;47.73;;;27.90;;
13805;SDS011;6974;53.606;9.872;2023-02-15T06:40:53;44.03;;;26.83;;
13805;SDS011;6974;53.606;9.872;2023-02-15T06:43:20;39.43;;;26.33;;
13805;SDS011;6974;53.606;9.872;2023-02-15T06:45:47;39.57;;;25.97;;
13805;SDS011;6974;53.606;9.872;2023-02-15T06:48:14;52.07;;;26.77;;
13805;SDS011;6974;53.606;9.872;2023-02-15T06:50:42;38.53;;;27.00;;
13805;SDS011;6974;53.606;9.872;2023-02-15T06:53:09;42.83;;;28.00;;
13805;SDS011;6974;53.606;9.872;2023-02-15T06:55:35;46.47;;;34.38;;
13805;SDS011;6974;53.606;9.872;2023-02-15T06:58:02;43.90;;;30.30;;
13805;SDS011;6974;53.606;9.872;2023-02-15T07:00:29;41.37;;;27.90;;
13805;SDS011;6974;53.606;9.872;2023-02-15T07:02:56;42.03;;;27.70;;
13805;SDS011;6974;53.606;9.872;2023-02-15T07:05:24;44.83;;;28.30;;
13805;SDS011;6974;53.606;9.872;2023-02-15T07:07:57;47.83;;;28.90;;
13805;SDS011;6974;53.606;9.872;2023-02-15T07:10:24;37.90;;;27.73;;
13805;SDS011;6974;53.606;9.872;2023-02-15T07:12:51;41.60;;;27.63;;
13805;SDS011;6974;53.606;9.872;2023-02-15T07:15:17;42.33;;;27.10;;
13805;SDS011;6974;53.606;9.872;2023-02-15T07:17:46;41.53;;;27.13;;
13805;SDS011;6974;53.606;9.872;2023-02-15T07:20:14;41.13;;;27.00;;
13805;SDS011;6974;53.606;9.872;2023-02-15T07:22:42;38.40;;;27.27;;
13805;SDS011;6974;53.606;9.872;2023-02-15T07:25:12;41.30;;;27.20;;
13805;SDS011;6974;53.606;9.872;2023-02-15T07:27:39;35.00;;;26.43;;
13805;SDS011;6974;53.606;9.872;2023-02-15T07:30:07;48.80;;;27.20;;
13805;SDS011;6974;53.606;9.872;2023-02-15T07:32:35;49.87;;;28.30;;
13805;SDS011;6974;53.606;9.872;2023-02-15T07:35:22;37.23;;;26.27;;
13805;SDS011;6974;53.606;9.872;2023-02-15T07:37:48;40.23;;;27.40;;
13805;SDS011;6974;53.606;9.872;2023-02-15T07:40:17;39.37;;;27.77;;
13805;SDS011;6974;53.606;9.872;2023-02-15T07:42:44;43.70;;;28.70;;
13805;SDS011;6974;53.606;9.872;2023-02-15T07:45:10;58.30;;;28.13;;
13805;SDS011;6974;53.606;9.872;2023-02-15T07:47:37;45.93;;;29.73;;
13805;SDS011;6974;53.606;9.872;2023-02-15T07:50:04;43.77;;;29.00;;
13805;SDS011;6974;53.606;9.872;2023-02-15T07:52:32;44.40;;;29.73;;
13805;SDS011;6974;53.606;9.872;2023-02-15T07:54:59;44.87;;;30.30;;
13805;SDS011;6974;53.606;9.872;2023-02-15T07:57:27;46.53;;;29.30;;
13805;SDS011;6974;53.606;9.872;2023-02-15T07:59:54;39.83;;;28.47;;
13805;SDS011;6974;53.606;9.872;2023-02-15T08:02:21;40.90;;;27.60;;
13805;SDS011;6974;53.606;9.872;2023-02-15T08:04:48;37.93;;;27.53;;
13805;SDS011;6974;53.606;9.872;2023-02-15T08:07:15;40.80;;;28.37;;
13805;SDS011;6974;53.606;9.872;2023-02-15T08:09:41;47.83;;;31.20;;
13805;SDS011;6974;53.606;9.872;2023-02-15T08:12:08;47.40;;;29.27;;
13805;SDS011;6974;53.606;9.872;2023-02-15T08:14:36;41.73;;;28.10;;
13805;SDS011;6974;53.606;9.872;2023-02-15T08:17:03;40.77;;;28.13;;
13805;SDS011;6974;53.606;9.872;2023-02-15T08:19:30;40.77;;;29.03;;
13805;SDS011;6974;53.606;9.872;2023-02-15T08:22:00;41.47;;;27.70;;
13805;SDS011;6974;53.606;9.872;2023-02-15T08:24:29;43.50;;;29.43;;
13805;SDS011;6974;53.606;9.872;2023-02-15T08:26:57;43.63;;;30.37;;
13805;SDS011;6974;53.606;9.872;2023-02-15T08:29:28;52.03;;;31.83;;
13805;SDS011;6974;53.606;9.872;2023-02-15T08:31:58;50.63;;;33.10;;
13805;SDS011;6974;53.606;9.872;2023-02-15T08:34:27;45.60;;;30.97;;
13805;SDS011;6974;53.606;9.872;2023-02-15T08:36:54;46.47;;;30.77;;
13805;SDS011;6974;53.606;9.872;2023-02-15T08:39:21;47.73;;;30.97;;
13805;SDS011;6974;53.606;9.872;2023-02-15T08:41:48;55.53;;;33.53;;
13805;SDS011;6974;53.606;9.872;2023-02-15T08:44:16;48.93;;;32.97;;
13805;SDS011;6974;53.606;9.872;2023-02-15T08:46:44;52.80;;;34.30;;
13805;SDS011;6974;53.606;9.872;2023-02-15T08:49:15;44.87;;;32.60;;
13805;SDS011;6974;53.606;9.872;2023-02-15T08:51:43;53.60;;;32.33;;
13805;SDS011;6974;53.606;9.872;2023-02-15T08:54:11;50.57;;;33.07;;
13805;SDS011;6974;53.606;9.872;2023-02-15T08:56:40;48.23;;;31.60;;
13805;SDS011;6974;53.606;9.872;2023-02-15T08:59:11;48.87;;;32.73;;
13805;SDS011;6974;53.606;9.872;2023-02-15T09:01:39;51.20;;;34.53;;
13805;SDS011;6974;53.606;9.872;2023-02-15T09:04:06;48.20;;;33.37;;
13805;SDS011;6974;53.606;9.872;2023-02-15T09:06:36;49.13;;;32.30;;
13805;SDS011;6974;53.606;9.872;2023-02-15T09:09:04;48.20;;;33.43;;
13805;SDS011;6974;53.606;9.872;2023-02-15T09:11:32;47.30;;;34.47;;
13805;SDS011;6974;53.606;9.872;2023-02-15T09:14:02;52.63;;;34.97;;
13805;SDS011;6974;53.606;9.872;2023-02-15T09:16:31;47.60;;;33.20;;
13805;SDS011;6974;53.606;9.872;2023-02-15T09:18:59;51.93;;;35.30;;
13805;SDS011;6974;53.606;9.872;2023-02-15T09:21:27;50.30;;;33.87;;
13805;SDS011;6974;53.606;9.872;2023-02-15T09:23:57;50.47;;;32.63;;
13805;SDS011;6974;53.606;9.872;2023-02-15T09:26:26;51.23;;;33.73;;
13805;SDS011;6974;53.606;9.872;2023-02-15T09:28:54;53.57;;;35.63;;
13805;SDS011;6974;53.606;9.872;2023-02-15T09:31:23;51.63;;;34.50;;
13805;SDS011;6974;53.606;9.872;2023-02-15T09:33:51;53.40;;;35.43;;
13805;SDS011;6974;53.606;9.872;2023-02-15T09:36:19;48.53;;;33.00;;
13805;SDS011;6974;53.606;9.872;2023-02-15T09:38:47;45.17;;;31.80;;
13805;SDS011;6974;53.606;9.872;2023-02-15T09:41:26;50.70;;;33.97;;
13805;SDS011;6974;53.606;9.872;2023-02-15T09:44:13;42.37;;;31.40;;
13805;SDS011;6974;53.606;9.872;2023-02-15T09:46:55;49.87;;;33.30;;
13805;SDS011;6974;53.606;9.872;2023-02-15T09:49:32;51.47;;;32.93;;
13805;SDS011;6974;53.606;9.872;2023-02-15T09:52:14;48.23;;;34.03;;
13805;SDS011;6974;53.606;9.872;2023-02-15T09:55:03;52.87;;;35.00;;
13805;SDS011;6974;53.606;9.872;2023-02-15T09:57:43;46.17;;;32.57;;
13805;SDS011;6974;53.606;9.872;2023-02-15T10:00:19;51.13;;;35.33;;
13805;SDS011;6974;53.606;9.872;2023-02-15T10:05:42;51.63;;;34.67;;
13805;SDS011;6974;53.606;9.872;2023-02-15T10:08:30;50.10;;;33.87;;
13805;SDS011;6974;53.606;9.872;2023-02-15T10:11:07;52.47;;;35.30;;
13805;SDS011;6974;53.606;9.872;2023-02-15T10:14:01;48.60;;;34.50;;
13805;SDS011;6974;53.606;9.872;2023-02-15T10:16:40;46.33;;;33.17;;
13805;SDS011;6974;53.606;9.872;2023-02-15T10:19:14;48.60;;;33.97;;
13805;SDS011;6974;53.606;9.872;2023-02-15T10:21:51;48.00;;;33.30;;
13805;SDS011;6974;53.606;9.872;2023-02-15T10:24:36;49.17;;;34.80;;
13805;SDS011;6974;53.606;9.872;2023-02-15T10:27:15;49.30;;;35.33;;
13805;SDS011;6974;53.606;9.872;2023-02-15T10:29:48;46.43;;;33.43;;
13805;SDS011;6974;53.606;9.872;2023-02-15T10:32:22;45.37;;;34.13;;
13805;SDS011;6974;53.606;9.872;2023-02-15T10:34:51;44.53;;;33.13;;
13805;SDS011;6974;53.606;9.872;2023-02-15T10:37:29;45.47;;;33.80;;
13805;SDS011;6974;53.606;9.872;2023-02-15T10:40:25;47.67;;;33.67;;
13805;SDS011;6974;53.606;9.872;2023-02-15T10:43:12;45.40;;;34.13;;
13805;SDS011;6974;53.606;9.872;2023-02-15T10:45:58;47.43;;;34.77;;
13805;SDS011;6974;53.606;9.872;2023-02-15T10:51:30;53.50;;;37.83;;
13805;SDS011;6974;53.606;9.872;2023-02-15T10:54:09;54.20;;;37.47;;
13805;SDS011;6974;53.606;9.872;2023-02-15T10:56:48;50.10;;;36.70;;
13805;SDS011;6974;53.606;9.872;2023-02-15T10:59:25;57.07;;;37.50;;
13805;SDS011;6974;53.606;9.872;2023-02-15T11:02:10;49.83;;;37.03;;
13805;SDS011;6974;53.606;9.872;2023-02-15T11:04:48;50.93;;;37.60;;
13805;SDS011;6974;53.606;9.872;2023-02-15T11:07:21;54.57;;;38.47;;
13805;SDS011;6974;53.606;9.872;2023-02-15T11:09:53;50.33;;;36.53;;
13805;SDS011;6974;53.606;9.872;2023-02-15T11:12:27;52.30;;;38.53;;
13805;SDS011;6974;53.606;9.872;2023-02-15T11:14:57;50.30;;;36.80;;
13805;SDS011;6974;53.606;9.872;2023-02-15T11:17:30;49.67;;;35.63;;
13805;SDS011;6974;53.606;9.872;2023-02-15T11:20:04;51.03;;;35.13;;
13805;SDS011;6974;53.606;9.872;2023-02-15T11:22:35;48.13;;;35.67;;
13805;SDS011;6974;53.606;9.872;2023-02-15T11:25:05;47.27;;;34.07;;
13805;SDS011;6974;53.606;9.872;2023-02-15T11:27:43;46.87;;;35.33;;
13805;SDS011;6974;53.606;9.872;2023-02-15T11:30:15;45.00;;;33.80;;
13805;SDS011;6974;53.606;9.872;2023-02-15T11:32:48;46.27;;;35.07;;
13805;SDS011;6974;53.606;9.872;2023-02-15T11:35:20;49.10;;;35.00;;
13805;SDS011;6974;53.606;9.872;2023-02-15T11:37:53;49.03;;;35.70;;
13805;SDS011;6974;53.606;9.872;2023-02-15T11:40:25;51.77;;;35.20;;
13805;SDS011;6974;53.606;9.872;2023-02-15T11:42:55;50.40;;;36.97;;
13805;SDS011;6974;53.606;9.872;2023-02-15T11:45:26;52.67;;;38.87;;
13805;SDS011;6974;53.606;9.872;2023-02-15T11:47:56;45.10;;;35.13;;
13805;SDS011;6974;53.606;9.872;2023-02-15T11:50:25;46.07;;;35.87;;
13805;SDS011;6974;53.606;9.872;2023-02-15T11:52:56;47.27;;;35.73;;
13805;SDS011;6974;53.606;9.872;2023-02-15T11:55:25;41.63;;;33.23;;
13805;SDS011;6974;53.606;9.872;2023-02-15T11:57:54;43.37;;;34.13;;
13805;SDS011;6974;53.606;9.872;2023-02-15T12:00:30;46.13;;;34.87;;
13805;SDS011;6974;53.606;9.872;2023-02-15T12:03:03;43.43;;;34.00;;
13805;SDS011;6974;53.606;9.872;2023-02-15T12:05:39;44.73;;;33.43;;
13805;SDS011;6974;53.606;9.872;2023-02-15T12:08:13;43.53;;;33.47;;
13805;SDS011;6974;53.606;9.872;2023-02-15T12:10:45;39.53;;;31.40;;
13805;SDS011;6974;53.606;9.872;2023-02-15T12:13:22;40.57;;;32.47;;
13805;SDS011;6974;53.606;9.872;2023-02-15T12:15:49;42.17;;;33.27;;
13805;SDS011;6974;53.606;9.872;2023-02-15T12:18:21;41.13;;;32.33;;
13805;SDS011;6974;53.606;9.872;2023-02-15T12:21:02;37.67;;;30.43;;
13805;SDS011;6974;53.606;9.872;2023-02-15T12:23:32;40.23;;;31.73;;
13805;SDS011;6974;53.606;9.872;2023-02-15T12:25:59;36.50;;;30.27;;
13805;SDS011;6974;53.606;9.872;2023-02-15T12:28:30;37.00;;;30.93;;
13805;SDS011;6974;53.606;9.872;2023-02-15T12:30:59;38.03;;;31.17;;
13805;SDS011;6974;53.606;9.872;2023-02-15T12:33:31;36.30;;;30.90;;
13805;SDS011;6974;53.606;9.872;2023-02-15T12:36:02;37.23;;;30.07;;
13805;SDS011;6974;53.606;9.872;2023-02-15T12:38:35;34.43;;;29.87;;
13805;SDS011;6974;53.606;9.872;2023-02-15T12:41:04;36.27;;;30.43;;
13805;SDS011;6974;53.606;9.872;2023-02-15T12:43:32;35.13;;;29.90;;
13805;SDS011;6974;53.606;9.872;2023-02-15T12:46:12;33.30;;;28.70;;
13805;SDS011;6974;53.606;9.872;2023-02-15T12:48:46;35.10;;;29.30;;
13805;SDS011;6974;53.606;9.872;2023-02-15T12:51:31;36.47;;;30.20;;
13805;SDS011;6974;53.606;9.872;2023-02-15T12:54:15;34.90;;;30.07;;
13805;SDS011;6974;53.606;9.872;2023-02-15T12:57:14;36.37;;;30.37;;
13805;SDS011;6974;53.606;9.872;2023-02-15T12:59:47;35.47;;;30.50;;
13805;SDS011;6974;53.606;9.872;2023-02-15T13:02:22;36.27;;;30.33;;
13805;SDS011;6974;53.606;9.872;2023-02-15T13:04:53;35.73;;;30.97;;
13805;SDS011;6974;53.606;9.872;2023-02-15T13:07:21;36.80;;;31.30;;
13805;SDS011;6974;53.606;9.872;2023-02-15T13:09:49;37.50;;;31.10;;
13805;SDS011;6974;53.606;9.872;2023-02-15T13:12:18;36.00;;;30.30;;
13805;SDS011;6974;53.606;9.872;2023-02-15T13:14:48;34.10;;;29.20;;
13805;SDS011;6974;53.606;9.872;2023-02-15T13:17:17;34.27;;;30.27;;
13805;SDS011;6974;53.606;9.872;2023-02-15T13:19:49;37.47;;;30.87;;
13805;SDS011;6974;53.606;9.872;2023-02-15T13:22:21;33.73;;;29.13;;
13805;SDS011;6974;53.606;9.872;2023-02-15T13:24:51;33.67;;;30.27;;
13805;SDS011;6974;53.606;9.872;2023-02-15T13:27:22;34.57;;;30.80;;
13805;SDS011;6974;53.606;9.872;2023-02-15T13:29:54;37.53;;;32.33;;
13805;SDS011;6974;53.606;9.872;2023-02-15T13:32:25;35.03;;;31.30;;
13805;SDS011;6974;53.606;9.872;2023-02-15T13:34:54;33.53;;;30.03;;
13805;SDS011;6974;53.606;9.872;2023-02-15T13:37:28;36.17;;;30.83;;
13805;SDS011;6974;53.606;9.872;2023-02-15T13:40:21;33.67;;;30.27;;
13805;SDS011;6974;53.606;9.872;2023-02-15T13:42:53;36.53;;;30.80;;
13805;SDS011;6974;53.606;9.872;2023-02-15T13:45:30;36.40;;;32.47;;
13805;SDS011;6974;53.606;9.872;2023-02-15T13:48:08;36.90;;;31.87;;
13805;SDS011;6974;53.606;9.872;2023-02-15T13:50:52;35.77;;;31.57;;
13805;SDS011;6974;53.606;9.872;2023-02-15T13:56:37;33.03;;;29.40;;
13805;SDS011;6974;53.606;9.872;2023-02-15T13:59:16;37.30;;;32.03;;
13805;SDS011;6974;53.606;9.872;2023-02-15T14:01:55;35.70;;;31.90;;
13805;SDS011;6974;53.606;9.872;2023-02-15T14:07:39;36.30;;;31.23;;
13805;SDS011;6974;53.606;9.872;2023-02-15T14:10:25;34.27;;;30.57;;
13805;SDS011;6974;53.606;9.872;2023-02-15T14:16:15;35.20;;;30.37;;
13805;SDS011;6974;53.606;9.872;2023-02-15T14:18:48;34.80;;;30.63;;
13805;SDS011;6974;53.606;9.872;2023-02-15T14:21:24;35.40;;;31.67;;
13805;SDS011;6974;53.606;9.872;2023-02-15T14:23:59;34.67;;;31.00;;
13805;SDS011;6974;53.606;9.872;2023-02-15T14:26:42;35.00;;;31.20;;
13805;SDS011;6974;53.606;9.872;2023-02-15T14:29:19;34.53;;;30.83;;
13805;SDS011;6974;53.606;9.872;2023-02-15T14:31:57;32.40;;;28.80;;
13805;SDS011;6974;53.606;9.872;2023-02-15T14:34:30;35.33;;;31.43;;
13805;SDS011;6974;53.606;9.872;2023-02-15T14:37:03;33.07;;;29.53;;
13805;SDS011;6974;53.606;9.872;2023-02-15T14:39:31;33.87;;;29.60;;
13805;SDS011;6974;53.606;9.872;2023-02-15T14:42:25;36.30;;;31.77;;
13805;SDS011;6974;53.606;9.872;2023-02-15T14:45:01;35.80;;;31.93;;
13805;SDS011;6974;53.606;9.872;2023-02-15T14:47:34;33.60;;;30.00;;
13805;SDS011;6974;53.606;9.872;2023-02-15T14:58:58;32.03;;;28.63;;
13805;SDS011;6974;53.606;9.872;2023-02-15T15:01:41;33.00;;;29.30;;
13805;SDS011;6974;53.606;9.872;2023-02-15T15:04:23;34.10;;;29.27;;
13805;SDS011;6974;53.606;9.872;2023-02-15T15:06:58;32.60;;;29.03;;
13805;SDS011;6974;53.606;9.872;2023-02-15T15:09:29;32.17;;;28.63;;
13805;SDS011;6974;53.606;9.872;2023-02-15T15:12:12;32.23;;;28.77;;
13805;SDS011;6974;53.606;9.872;2023-02-15T15:14:42;32.70;;;27.90;;
13805;SDS011;6974;53.606;9.872;2023-02-15T15:17:11;33.30;;;29.80;;
13805;SDS011;6974;53.606;9.872;2023-02-15T15:20:00;34.00;;;27.83;;
13805;SDS011;6974;53.606;9.872;2023-02-15T15:22:29;33.27;;;28.90;;
13805;SDS011;6974;53.606;9.872;2023-02-15T15:24:57;33.27;;;28.33;;
13805;SDS011;6974;53.606;9.872;2023-02-15T15:27:38;35.63;;;30.27;;